Time;durP1;ratioP1;P1;durP2;ratioP2;P2;SDS_P1;SDS_P2;PMS_P1;PMS_P2;Temp;Humidity;BMP_temperature;BMP_pressure;BME280_temperature;BME280_humidity;BME280_pressure;Samples;Min_cycle;Max_cycle;Signal;HPM_P1;HPM_P2
2021/03/15 00:00:35;;;;;;;0.10;0.10;;;4.90;99.90;;;;;;4984348;28;20044;-88
2021/03/15 00:03:01;;;;;;;0.17;0.17;;;4.90;99.90;;;;;;4986981;28;20046;-88
2021/03/15 00:05:27;;;;;;;0.05;0.05;;;4.90;99.90;;;;;;4985263;28;20054;-87
2021/03/15 00:07:53;;;;;;;1.45;0.73;;;4.70;99.90;;;;;;4985106;28;20030;-87
2021/03/15 00:10:20;;;;;;;0.20;0.20;;;4.80;99.90;;;;;;4985645;28;20376;-87
2021/03/15 00:12:45;;;;;;;0.10;0.10;;;4.70;99.90;;;;;;4985948;28;20560;-87
2021/03/15 00:15:14;;;;;;;0.00;0.00;;;4.60;99.90;;;;;;4986130;28;20054;-87
2021/03/15 00:17:41;;;;;;;0.20;0.20;;;4.40;99.90;;;;;;4986657;28;20034;-87
2021/03/15 00:20:10;;;;;;;0.25;0.25;;;4.30;99.90;;;;;;4986833;28;20058;-87
2021/03/15 00:22:36;;;;;;;14.23;1.25;;;4.40;99.90;;;;;;4981017;28;20026;-87
2021/03/15 00:25:03;;;;;;;0.10;0.10;;;4.50;99.90;;;;;;4987438;28;20461;-87
2021/03/15 00:27:28;;;;;;;0.10;0.10;;;4.60;99.90;;;;;;4985336;28;20446;-87
2021/03/15 00:29:54;;;;;;;0.65;0.65;;;4.70;99.90;;;;;;4980292;28;20094;-87
2021/03/15 00:32:20;;;;;;;0.00;0.00;;;4.60;99.90;;;;;;4984108;28;20534;-87
2021/03/15 00:34:47;;;;;;;2.53;1.02;;;4.70;99.90;;;;;;4971859;28;20041;-87
2021/03/15 00:37:12;;;;;;;0.30;0.30;;;4.80;99.90;;;;;;4987514;28;20052;-87
2021/03/15 00:39:39;;;;;;;0.10;0.10;;;4.80;99.90;;;;;;4982136;28;20383;-88
2021/03/15 00:42:06;;;;;;;0.10;0.10;;;4.80;99.90;;;;;;4982492;28;20026;-86
2021/03/15 00:44:32;;;;;;;0.00;0.00;;;4.80;99.90;;;;;;4975593;28;20830;-87
2021/03/15 00:46:58;;;;;;;0.00;0.00;;;4.60;99.90;;;;;;4985057;28;20045;-88
2021/03/15 00:49:23;;;;;;;0.25;0.25;;;4.50;99.90;;;;;;4986954;28;20031;-88
2021/03/15 00:51:49;;;;;;;0.35;0.35;;;4.50;99.90;;;;;;4985230;28;20074;-87
2021/03/15 00:54:15;;;;;;;0.10;0.10;;;4.50;99.90;;;;;;4990419;28;20022;-87
2021/03/15 00:56:41;;;;;;;0.47;0.47;;;4.60;99.90;;;;;;4986264;28;20098;-87
2021/03/15 00:59:06;;;;;;;0.30;0.20;;;4.50;99.90;;;;;;4990827;28;20101;-87
2021/03/15 01:01:32;;;;;;;0.10;0.10;;;4.60;99.90;;;;;;4983469;28;20109;-87
2021/03/15 01:03:58;;;;;;;0.10;0.10;;;4.70;99.90;;;;;;4991117;28;20034;-87
2021/03/15 01:06:24;;;;;;;0.10;0.10;;;4.60;99.90;;;;;;4978276;28;20038;-88
2021/03/15 01:08:49;;;;;;;1.30;1.02;;;4.50;99.90;;;;;;4991360;28;20023;-87
2021/03/15 01:11:15;;;;;;;0.10;0.10;;;4.60;99.90;;;;;;4984100;28;20109;-87
2021/03/15 01:13:41;;;;;;;0.10;0.10;;;4.60;99.90;;;;;;4985011;28;20081;-87
2021/03/15 01:16:07;;;;;;;0.08;0.08;;;4.50;99.90;;;;;;4987915;28;20109;-86
2021/03/15 01:18:33;;;;;;;0.80;0.80;;;4.50;99.90;;;;;;4992022;28;20029;-87
2021/03/15 01:20:59;;;;;;;0.30;0.30;;;4.50;99.90;;;;;;4987377;28;20041;-87
2021/03/15 01:23:25;;;;;;;0.90;0.90;;;4.50;99.90;;;;;;4990902;28;20035;-87
2021/03/15 01:25:51;;;;;;;6.85;0.50;;;4.60;99.90;;;;;;4985464;28;20042;-87
2021/03/15 01:28:19;;;;;;;0.05;0.05;;;4.60;99.90;;;;;;4986343;28;20030;-87
2021/03/15 01:30:46;;;;;;;0.10;0.10;;;4.60;99.90;;;;;;4984855;28;20037;-88
2021/03/15 01:33:12;;;;;;;0.08;0.08;;;4.60;99.90;;;;;;4989197;28;20033;-88
2021/03/15 01:35:38;;;;;;;0.10;0.10;;;4.70;99.90;;;;;;4991055;28;20399;-87
2021/03/15 01:38:06;;;;;;;0.30;0.30;;;4.70;99.90;;;;;;4989861;28;20052;-87
2021/03/15 01:40:34;;;;;;;0.03;0.03;;;4.80;99.90;;;;;;4983104;28;20026;-88
2021/03/15 01:43:00;;;;;;;0.22;0.22;;;4.70;99.90;;;;;;4988016;28;20491;-87
2021/03/15 01:45:26;;;;;;;0.15;0.15;;;4.60;99.90;;;;;;4989289;28;20037;-87
2021/03/15 01:47:52;;;;;;;0.88;0.88;;;4.60;99.90;;;;;;4983701;28;20058;-86
2021/03/15 01:50:20;;;;;;;1.25;0.80;;;4.50;99.90;;;;;;4987705;28;20693;-87
2021/03/15 01:52:47;;;;;;;0.10;0.10;;;4.40;99.90;;;;;;4985315;28;20058;-86
2021/03/15 01:55:15;;;;;;;2.60;0.95;;;4.60;99.90;;;;;;4984294;28;20027;-87
2021/03/15 01:57:41;;;;;;;0.10;0.10;;;4.50;99.90;;;;;;4984445;28;20038;-87
2021/03/15 02:00:09;;;;;;;0.10;0.10;;;4.50;99.90;;;;;;4987744;28;20030;-87
2021/03/15 02:02:37;;;;;;;0.10;0.10;;;4.50;99.90;;;;;;4986622;28;20034;-87
2021/03/15 02:05:04;;;;;;;0.25;0.25;;;4.50;99.90;;;;;;4988660;28;20038;-87
2021/03/15 02:07:30;;;;;;;0.00;0.00;;;4.40;99.90;;;;;;4989642;28;20094;-87
2021/03/15 02:09:56;;;;;;;0.10;0.10;;;4.50;99.90;;;;;;4987760;28;20042;-86
2021/03/15 02:12:31;;;;;;;0.10;0.10;;;4.50;99.90;;;;;;4984506;28;20030;-86
2021/03/15 02:15:02;;;;;;;3.50;1.05;;;4.50;99.90;;;;;;4977385;28;20112;-87
2021/03/15 02:17:46;;;;;;;0.03;0.03;;;4.40;99.90;;;;;;4985561;28;20105;-88
2021/03/15 02:20:34;;;;;;;0.00;0.00;;;4.40;99.90;;;;;;4981592;28;20106;-88
2021/03/15 02:23:09;;;;;;;8.20;0.95;;;4.40;99.90;;;;;;4987204;28;20034;-89
2021/03/15 02:26:03;;;;;;;0.77;0.55;;;4.50;99.90;;;;;;4987605;28;20014;-88
2021/03/15 02:29:17;;;;;;;0.10;0.10;;;4.60;99.90;;;;;;4986460;28;20026;-88
2021/03/15 02:32:05;;;;;;;0.60;0.60;;;4.50;99.90;;;;;;4983446;28;20043;-88
2021/03/15 02:34:31;;;;;;;2.97;0.47;;;4.60;99.90;;;;;;4984102;28;20031;-86
2021/03/15 02:36:59;;;;;;;0.75;0.75;;;4.60;99.90;;;;;;4988757;28;20026;-86
2021/03/15 02:39:32;;;;;;;1.98;1.10;;;4.60;99.90;;;;;;4990006;28;20797;-86
2021/03/15 02:42:02;;;;;;;0.10;0.10;;;4.70;99.90;;;;;;4988970;28;20034;-86
2021/03/15 02:44:32;;;;;;;0.10;0.10;;;4.60;99.90;;;;;;4989877;28;20125;-86
2021/03/15 02:47:00;;;;;;;0.57;0.57;;;4.70;99.90;;;;;;4987617;28;20034;-85
2021/03/15 02:49:28;;;;;;;0.10;0.10;;;4.60;99.90;;;;;;4988722;28;20026;-86
2021/03/15 02:51:59;;;;;;;0.10;0.10;;;4.60;99.90;;;;;;4985836;28;20113;-86
2021/03/15 02:54:26;;;;;;;0.30;0.30;;;4.60;99.90;;;;;;4989621;28;20027;-86
2021/03/15 02:56:54;;;;;;;0.98;0.40;;;4.60;99.90;;;;;;4986627;28;20031;-86
2021/03/15 02:59:21;;;;;;;0.10;0.10;;;4.60;99.90;;;;;;4974316;28;20368;-85
2021/03/15 03:01:47;;;;;;;;;;;4.70;99.90;;;;;;4989716;28;20703;-86
2021/03/15 03:04:15;;;;;;;0.10;0.10;;;4.70;99.90;;;;;;4987739;28;19913;-86
2021/03/15 03:06:44;;;;;;;0.47;0.47;;;4.70;99.90;;;;;;4985068;28;20080;-87
2021/03/15 03:09:13;;;;;;;1.15;0.98;;;4.80;99.90;;;;;;4985807;28;20121;-87
2021/03/15 03:11:40;;;;;;;0.03;0.03;;;4.70;99.90;;;;;;4988791;28;20038;-87
2021/03/15 03:14:07;;;;;;;0.00;0.00;;;4.70;99.90;;;;;;4988418;28;20070;-87
2021/03/15 03:16:38;;;;;;;0.82;0.82;;;4.70;99.90;;;;;;4987409;28;20034;-86
2021/03/15 03:19:09;;;;;;;0.22;0.22;;;4.50;99.90;;;;;;4983535;28;20119;-86
2021/03/15 03:21:39;;;;;;;0.25;0.25;;;4.60;99.90;;;;;;4989698;28;20026;-86
2021/03/15 03:24:07;;;;;;;0.10;0.10;;;4.60;99.90;;;;;;4988001;28;20109;-86
2021/03/15 03:26:34;;;;;;;0.08;0.08;;;4.60;99.90;;;;;;4979515;28;20050;-87
2021/03/15 03:29:00;;;;;;;0.10;0.10;;;4.70;99.90;;;;;;4988308;28;20030;-86
2021/03/15 03:31:30;;;;;;;0.00;0.00;;;4.70;99.90;;;;;;4987203;28;20101;-86
2021/03/15 03:33:56;;;;;;;0.00;0.00;;;4.60;99.90;;;;;;4989254;28;20023;-86
2021/03/15 03:36:22;;;;;;;1.55;0.47;;;4.70;99.90;;;;;;4983599;28;20546;-87
2021/03/15 03:38:48;;;;;;;0.20;0.20;;;4.70;99.90;;;;;;4984665;28;20560;-86
2021/03/15 03:41:14;;;;;;;0.00;0.00;;;4.70;99.90;;;;;;4987235;28;20044;-87
2021/03/15 03:43:40;;;;;;;0.00;0.00;;;4.70;99.90;;;;;;4987087;28;20026;-87
2021/03/15 03:46:06;;;;;;;0.47;0.47;;;4.70;99.90;;;;;;4982508;28;20680;-86
2021/03/15 03:48:35;;;;;;;0.32;0.32;;;4.60;99.90;;;;;;4979016;28;20038;-87
2021/03/15 03:51:02;;;;;;;18.90;2.03;;;4.70;99.90;;;;;;4989174;28;20034;-87
2021/03/15 03:53:41;;;;;;;0.98;0.93;;;4.70;99.90;;;;;;4982967;28;20765;-86
2021/03/15 03:56:50;;;;;;;0.10;0.10;;;4.60;99.90;;;;;;4981436;28;20473;-86
2021/03/15 03:59:24;;;;;;;0.50;0.50;;;4.60;99.90;;;;;;4978573;28;20041;-86
2021/03/15 04:01:53;;;;;;;12.52;0.75;;;4.60;99.90;;;;;;4980550;28;20034;-86
2021/03/15 04:04:26;;;;;;;0.38;0.38;;;4.60;99.90;;;;;;4979013;28;20618;-86
2021/03/15 04:06:53;;;;;;;0.32;0.32;;;4.60;99.90;;;;;;4985689;28;20046;-87
2021/03/15 04:09:35;;;;;;;0.55;0.55;;;4.70;99.90;;;;;;4988690;28;20805;-87
2021/03/15 04:12:24;;;;;;;2.45;1.45;;;4.70;99.90;;;;;;4984885;28;20088;-86
2021/03/15 04:14:53;;;;;;;0.20;0.20;;;4.60;99.90;;;;;;4983437;28;20046;-87
2021/03/15 04:17:25;;;;;;;0.10;0.10;;;4.60;99.90;;;;;;4988641;28;20514;-87
2021/03/15 04:19:56;;;;;;;0.10;0.10;;;4.50;99.90;;;;;;4987255;28;20042;-87
2021/03/15 04:22:25;;;;;;;0.10;0.10;;;4.50;99.90;;;;;;4981124;28;20113;-87
2021/03/15 04:24:54;;;;;;;2.28;1.00;;;4.60;99.90;;;;;;4987385;28;20039;-87
2021/03/15 04:27:20;;;;;;;6.45;0.80;;;4.50;99.90;;;;;;4988463;28;20526;-86
2021/03/15 04:29:47;;;;;;;0.15;0.15;;;4.60;99.90;;;;;;4985179;28;20038;-86
2021/03/15 04:32:13;;;;;;;3.78;0.98;;;4.70;99.90;;;;;;4986885;28;20034;-87
2021/03/15 04:34:40;;;;;;;2.40;1.45;;;4.80;99.90;;;;;;4987083;28;20141;-86
2021/03/15 04:37:08;;;;;;;0.75;0.75;;;4.70;99.90;;;;;;4977020;28;20783;-86
2021/03/15 04:39:36;;;;;;;1.02;0.90;;;4.70;99.90;;;;;;4986309;28;20098;-86
2021/03/15 04:42:03;;;;;;;0.00;0.00;;;4.80;99.90;;;;;;4987322;28;20023;-86
2021/03/15 04:44:29;;;;;;;0.25;0.25;;;4.80;99.90;;;;;;4985295;28;20030;-86
2021/03/15 04:46:56;;;;;;;0.05;0.05;;;4.80;99.90;;;;;;4988617;28;20744;-87
2021/03/15 04:49:23;;;;;;;0.00;0.00;;;4.80;99.90;;;;;;4987764;28;20034;-87
2021/03/15 04:51:50;;;;;;;0.55;0.55;;;4.80;99.90;;;;;;4986892;28;20034;-87
2021/03/15 04:54:16;;;;;;;0.52;0.52;;;4.80;99.90;;;;;;4981572;28;20036;-87
2021/03/15 04:56:43;;;;;;;4.47;1.85;;;4.80;99.90;;;;;;4987232;28;20030;-88
2021/03/15 04:59:10;;;;;;;0.20;0.20;;;4.80;99.90;;;;;;4987379;28;20406;-88
2021/03/15 05:01:52;;;;;;;0.20;0.20;;;4.80;99.90;;;;;;4985736;28;20069;-87
2021/03/15 05:04:24;;;;;;;0.00;0.00;;;4.80;99.90;;;;;;4986308;28;20693;-85
2021/03/15 05:06:52;;;;;;;0.88;0.80;;;4.80;99.90;;;;;;4980968;28;20109;-87
2021/03/15 05:09:19;;;;;;;0.52;0.52;;;4.90;99.90;;;;;;4987931;28;20121;-92
2021/03/15 05:11:48;;;;;;;0.40;0.40;;;4.90;99.90;;;;;;4976510;28;20034;-94
2021/03/15 05:14:16;;;;;;;0.20;0.20;;;4.80;99.90;;;;;;4987654;28;20129;-93
2021/03/15 05:16:43;;;;;;;0.28;0.28;;;4.90;99.90;;;;;;4983988;28;20031;-91
2021/03/15 05:19:10;;;;;;;;;;;4.80;99.90;;;;;;4986132;28;20026;-90
2021/03/15 05:21:38;;;;;;;2.72;0.75;;;4.80;99.90;;;;;;4985031;28;19906;-91
2021/03/15 05:24:04;;;;;;;1.80;1.08;;;4.90;99.90;;;;;;4984838;28;20498;-92
2021/03/15 05:26:32;;;;;;;1.55;0.77;;;4.90;99.90;;;;;;4988195;28;20113;-91
2021/03/15 05:29:02;;;;;;;1.75;1.65;;;4.90;99.90;;;;;;4981172;28;20027;-91
2021/03/15 05:31:32;;;;;;;0.35;0.35;;;4.80;99.90;;;;;;4992968;28;20030;-91
2021/03/15 05:33:59;;;;;;;0.40;0.40;;;4.90;99.90;;;;;;4991175;28;20061;-92
2021/03/15 05:36:27;;;;;;;0.32;0.32;;;4.90;99.90;;;;;;4988444;28;20050;-92
2021/03/15 05:38:54;;;;;;;0.75;0.75;;;4.90;99.90;;;;;;4993498;28;20019;-91
2021/03/15 05:41:37;;;;;;;0.38;0.38;;;4.90;99.90;;;;;;4987192;28;21091;-92
2021/03/15 05:44:42;;;;;;;0.28;0.28;;;4.90;99.90;;;;;;4990118;28;20443;-91
2021/03/15 05:47:48;;;;;;;0.90;0.88;;;5.00;99.90;;;;;;4949676;29;20070;-91
2021/03/15 05:50:42;;;;;;;0.10;0.10;;;4.90;99.90;;;;;;4947069;29;20105;-94
2021/03/15 05:53:14;;;;;;;0.30;0.30;;;5.00;99.90;;;;;;4939525;29;20547;-94
2021/03/15 05:56:05;;;;;;;0.75;0.75;;;5.00;99.90;;;;;;4943499;28;20031;-90
2021/03/15 05:58:45;;;;;;;0.20;0.20;;;5.00;99.90;;;;;;4964898;28;20031;-90
2021/03/15 06:01:27;;;;;;;0.10;0.10;;;5.10;99.90;;;;;;4934196;29;20147;-91
2021/03/15 06:04:16;;;;;;;0.28;0.28;;;5.00;99.90;;;;;;4932483;29;20042;-91
2021/03/15 06:06:47;;;;;;;21.63;1.10;;;5.10;99.90;;;;;;4951834;29;20135;-91
2021/03/15 06:09:18;;;;;;;0.20;0.20;;;5.10;99.90;;;;;;4948474;29;20202;-91
2021/03/15 06:11:54;;;;;;;0.17;0.17;;;5.10;99.90;;;;;;4949717;29;20035;-88
2021/03/15 06:14:22;;;;;;;0.63;0.63;;;5.10;99.90;;;;;;4939933;28;20047;-89
2021/03/15 06:16:49;;;;;;;10.20;6.03;;;5.10;99.90;;;;;;4944799;28;20377;-90
2021/03/15 06:19:16;;;;;;;3.30;3.10;;;5.10;99.90;;;;;;4965216;28;20031;-90
2021/03/15 06:21:42;;;;;;;;;;;5.10;99.90;;;;;;4950201;28;20035;-91
2021/03/15 06:24:09;;;;;;;3.13;2.92;;;5.10;99.90;;;;;;5005402;28;19909;-91
2021/03/15 06:26:35;;;;;;;10.43;3.63;;;5.10;99.90;;;;;;4989369;28;20076;-91
2021/03/15 06:29:03;;;;;;;2.73;2.53;;;5.10;99.90;;;;;;4991319;28;20022;-91
2021/03/15 06:31:32;;;;;;;4.70;2.58;;;5.10;99.90;;;;;;4991655;28;20340;-91
2021/03/15 06:33:58;;;;;;;1.35;1.35;;;5.10;99.90;;;;;;4990317;28;20450;-91
2021/03/15 06:36:25;;;;;;;0.98;0.68;;;5.10;99.90;;;;;;4990438;28;20046;-90
2021/03/15 06:38:51;;;;;;;3.17;2.97;;;5.10;99.90;;;;;;4978064;28;20453;-93
2021/03/15 06:41:19;;;;;;;1.08;1.08;;;5.10;99.90;;;;;;4980580;28;20107;-92
2021/03/15 06:43:45;;;;;;;4.18;2.65;;;5.10;99.90;;;;;;4988267;28;20034;-91
2021/03/15 06:46:15;;;;;;;2.47;2.28;;;5.10;99.90;;;;;;4991697;28;20030;-92
2021/03/15 06:48:41;;;;;;;0.68;0.68;;;5.10;99.90;;;;;;4992482;28;20446;-91
2021/03/15 06:51:07;;;;;;;2.33;1.70;;;5.20;99.90;;;;;;4989940;28;20025;-90
2021/03/15 06:53:43;;;;;;;24.45;1.85;;;5.20;99.90;;;;;;4975143;28;20114;-95
2021/03/15 06:56:22;;;;;;;;;;;5.10;99.90;;;;;;4982372;28;20026;-96
2021/03/15 06:58:51;;;;;;;1.60;1.55;;;5.20;99.90;;;;;;4978240;28;19916;-96
2021/03/15 07:01:21;;;;;;;3.60;2.75;;;5.20;99.90;;;;;;4981200;28;20105;-96
2021/03/15 07:04:03;;;;;;;13.20;4.35;;;5.10;99.90;;;;;;4975916;28;20085;-96
2021/03/15 07:06:39;;;;;;;6.72;3.28;;;5.20;99.90;;;;;;4981696;28;20030;-95
2021/03/15 07:09:12;;;;;;;2.45;2.25;;;5.20;99.90;;;;;;4991153;28;20121;-96
2021/03/15 07:11:39;;;;;;;9.70;8.27;;;5.20;99.90;;;;;;5006470;28;20038;-96
2021/03/15 07:14:04;;;;;;;5.28;4.13;;;5.20;99.90;;;;;;5000571;28;20042;-94
2021/03/15 07:16:34;;;;;;;11.35;6.00;;;5.20;99.90;;;;;;4994104;28;20080;-93
2021/03/15 07:19:03;;;;;;;45.40;4.50;;;5.20;99.90;;;;;;4994591;28;20376;-95
2021/03/15 07:21:39;;;;;;;19.48;4.40;;;5.30;99.90;;;;;;4994458;28;20041;-94
2021/03/15 07:24:11;;;;;;;4.85;2.22;;;5.20;99.90;;;;;;4997095;28;20026;-96
2021/03/15 07:26:44;;;;;;;6.38;4.10;;;5.20;99.90;;;;;;4996449;28;20084;-94
2021/03/15 07:29:16;;;;;;;21.70;9.73;;;5.20;99.90;;;;;;4994759;28;20049;-94
2021/03/15 07:35:26;;;;;;;1.60;1.50;;;5.30;99.90;;;;;;4995400;28;20069;-95
2021/03/15 07:37:53;;;;;;;0.75;0.75;;;5.30;99.90;;;;;;4993921;28;20027;-94
2021/03/15 07:40:36;;;;;;;;;;;5.40;99.90;;;;;;4996959;28;20026;-96
2021/03/15 07:43:05;;;;;;;0.75;0.75;;;5.40;99.90;;;;;;5000100;28;19905;-90
2021/03/15 07:45:37;;;;;;;1.00;0.73;;;5.50;99.90;;;;;;4995373;28;20061;-89
2021/03/15 07:48:32;;;;;;;2.28;1.42;;;5.50;99.90;;;;;;4978364;28;20111;-89
2021/03/15 07:51:00;;;;;;;1.77;0.80;;;5.60;1.00;;;;;;4986917;28;20334;-89
2021/03/15 07:53:46;;;;;;;4.38;1.88;;;5.50;1.00;;;;;;4990826;28;20117;-89
2021/03/15 07:56:22;;;;;;;0.50;0.50;;;5.50;1.00;;;;;;4992014;28;20502;-87
2021/03/15 07:58:51;;;;;;;0.30;0.30;;;5.60;99.90;;;;;;4999788;28;20077;-88
2021/03/15 08:01:17;;;;;;;14.23;1.00;;;5.60;1.00;;;;;;4992867;28;20026;-95
2021/03/15 08:03:43;;;;;;;0.10;0.10;;;5.60;1.00;;;;;;4990415;28;20034;-90
2021/03/15 08:06:11;;;;;;;0.35;0.35;;;5.60;99.90;;;;;;4989349;28;20116;-91
2021/03/15 08:08:38;;;;;;;0.75;0.75;;;5.60;99.90;;;;;;4979072;28;20034;-93
2021/03/15 08:11:05;;;;;;;;;;;5.50;99.90;;;;;;4980091;28;20110;-93
2021/03/15 08:13:35;;;;;;;;;;;5.60;99.90;;;;;;4977462;28;19918;-92
2021/03/15 08:16:02;;;;;;;0.60;0.60;;;5.70;99.90;;;;;;4989706;28;19978;-92
2021/03/15 08:18:29;;;;;;;0.95;0.70;;;5.80;99.90;;;;;;4989430;28;20027;-91
2021/03/15 08:21:05;;;;;;;0.10;0.10;;;5.80;99.90;;;;;;4973473;28;20615;-93
2021/03/15 08:23:32;;;;;;;0.10;0.10;;;5.70;99.90;;;;;;4989051;28;20041;-92
2021/03/15 08:26:03;;;;;;;0.20;0.20;;;5.70;99.90;;;;;;4981373;28;20023;-92
2021/03/15 08:28:32;;;;;;;0.30;0.30;;;5.70;99.90;;;;;;4990751;28;20037;-92
2021/03/15 08:31:20;;;;;;;0.43;0.43;;;5.70;99.90;;;;;;4979640;28;20034;-92
2021/03/15 08:33:48;;;;;;;5.38;1.55;;;5.80;99.90;;;;;;4975815;28;20038;-92
2021/03/15 08:36:15;;;;;;;0.20;0.20;;;5.80;99.90;;;;;;4972678;28;20023;-92
2021/03/15 08:38:41;;;;;;;0.10;0.10;;;5.70;99.90;;;;;;4990217;28;20030;-92
2021/03/15 08:41:11;;;;;;;0.03;0.03;;;5.80;99.90;;;;;;4982262;28;20027;-93
2021/03/15 08:43:53;;;;;;;0.20;0.20;;;5.80;99.90;;;;;;4972419;28;20027;-92
2021/03/15 08:46:24;;;;;;;1.95;0.77;;;5.90;99.90;;;;;;4973723;28;20495;-93
2021/03/15 08:48:55;;;;;;;0.10;0.10;;;5.90;99.90;;;;;;4989529;28;20026;-92
2021/03/15 08:51:46;;;;;;;0.43;0.43;;;6.00;99.90;;;;;;4991934;28;20054;-92
2021/03/15 08:54:14;;;;;;;1.00;0.68;;;6.00;99.90;;;;;;4987033;28;20022;-92
2021/03/15 08:56:47;;;;;;;0.10;0.10;;;6.10;99.90;;;;;;4974184;28;20403;-93
2021/03/15 08:59:14;;;;;;;0.10;0.10;;;6.10;99.90;;;;;;4977774;28;20071;-91
2021/03/15 09:01:43;;;;;;;0.32;0.32;;;6.10;99.90;;;;;;4992243;28;20034;-92
2021/03/15 09:04:08;;;;;;;0.40;0.40;;;6.00;99.90;;;;;;4990799;28;20379;-92
2021/03/15 09:06:37;;;;;;;0.15;0.15;;;6.10;1.00;;;;;;4991262;28;20033;-93
2021/03/15 09:09:10;;;;;;;1.23;1.20;;;6.10;1.00;;;;;;4989664;28;20027;-92
2021/03/15 09:11:41;;;;;;;0.17;0.17;;;6.20;99.90;;;;;;4983371;28;20402;-93
2021/03/15 09:14:26;;;;;;;0.10;0.10;;;6.10;99.90;;;;;;4980086;28;20047;-93
2021/03/15 09:16:54;;;;;;;1.15;0.95;;;6.10;99.90;;;;;;4976229;28;20510;-92
2021/03/15 09:19:24;;;;;;;0.03;0.03;;;6.10;48.20;;;;;;4991508;28;20027;-92
2021/03/15 09:21:56;;;;;;;0.40;0.40;;;6.20;99.90;;;;;;4995611;28;20026;-93
2021/03/15 09:24:37;;;;;;;0.20;0.20;;;6.30;99.90;;;;;;4981732;28;20117;-92
2021/03/15 09:27:07;;;;;;;0.10;0.10;;;6.40;42.00;;;;;;4986015;28;20109;-93
2021/03/15 09:29:36;;;;;;;0.40;0.40;;;6.50;1.00;;;;;;4995502;28;20121;-92
2021/03/15 09:32:12;;;;;;;0.10;0.10;;;6.50;99.90;;;;;;4995796;28;20030;-93
2021/03/15 09:34:38;;;;;;;0.63;0.63;;;6.40;99.90;;;;;;4995385;28;20038;-93
2021/03/15 09:37:05;;;;;;;0.88;0.85;;;6.40;99.90;;;;;;4995391;28;20041;-93
2021/03/15 09:39:31;;;;;;;0.32;0.32;;;6.50;99.90;;;;;;4985093;28;20019;-93
2021/03/15 09:42:00;;;;;;;2.45;0.88;;;6.50;99.90;;;;;;4976004;28;20039;-93
2021/03/15 09:44:28;;;;;;;4.38;1.00;;;6.50;99.90;;;;;;4975747;28;20423;-93
2021/03/15 09:46:55;;;;;;;0.10;0.10;;;6.60;99.90;;;;;;4975883;28;20023;-93
2021/03/15 09:49:41;;;;;;;0.80;0.80;;;6.70;99.90;;;;;;4977223;28;20411;-93
2021/03/15 09:52:16;;;;;;;0.10;0.10;;;6.80;99.90;;;;;;4976902;28;20459;-93
2021/03/15 09:54:47;;;;;;;0.52;0.52;;;6.80;99.90;;;;;;4984371;28;20061;-92
2021/03/15 09:57:14;;;;;;;0.10;0.10;;;7.10;99.90;;;;;;4979245;28;20035;-92
2021/03/15 09:59:40;;;;;;;0.10;0.10;;;7.10;99.90;;;;;;4985989;28;20073;-93
2021/03/15 10:02:06;;;;;;;0.20;0.20;;;7.20;99.90;;;;;;4975605;28;20034;-92
2021/03/15 10:04:38;;;;;;;0.13;0.13;;;7.30;99.90;;;;;;4975180;28;20022;-93
2021/03/15 10:07:11;;;;;;;0.13;0.13;;;7.30;99.90;;;;;;4983640;28;20026;-93
2021/03/15 10:09:39;;;;;;;0.10;0.10;;;7.30;99.90;;;;;;4981533;28;20053;-93
2021/03/15 10:12:09;;;;;;;0.73;0.73;;;7.30;99.90;;;;;;4994878;28;20038;-94
2021/03/15 10:14:35;;;;;;;0.20;0.20;;;7.30;99.90;;;;;;4994152;28;20085;-93
2021/03/15 10:17:03;;;;;;;0.95;0.95;;;7.40;99.90;;;;;;4994555;28;20027;-93
2021/03/15 10:19:31;;;;;;;0.77;0.65;;;7.70;99.90;;;;;;4990929;28;20026;-93
2021/03/15 10:22:16;;;;;;;0.20;0.20;;;7.70;99.90;;;;;;4974640;28;20035;-93
2021/03/15 10:24:43;;;;;;;0.20;0.20;;;7.60;1.00;;;;;;4988839;28;20077;-93
2021/03/15 10:27:16;;;;;;;3.95;0.35;;;7.70;99.90;;;;;;4975431;28;20034;-94
2021/03/15 10:29:42;;;;;;;0.68;0.63;;;8.00;99.90;;;;;;4988661;28;20448;-94
2021/03/15 10:32:08;;;;;;;0.10;0.10;;;8.00;99.90;;;;;;4974820;28;20031;-93
2021/03/15 10:34:35;;;;;;;0.20;0.20;;;8.10;99.90;;;;;;4991195;28;20080;-93
2021/03/15 10:37:02;;;;;;;0.80;0.70;;;8.00;99.90;;;;;;4986888;28;20022;-93
2021/03/15 10:39:28;;;;;;;1.20;0.68;;;8.10;99.90;;;;;;4984541;28;20073;-93
2021/03/15 10:41:55;;;;;;;0.35;0.35;;;8.10;99.90;;;;;;4994064;28;20086;-93
2021/03/15 10:44:24;;;;;;;0.57;0.57;;;8.10;99.90;;;;;;4994248;28;20027;-93
2021/03/15 10:46:55;;;;;;;0.85;0.82;;;8.10;99.90;;;;;;4993916;28;20037;-93
2021/03/15 10:49:27;;;;;;;0.00;0.00;;;8.10;99.90;;;;;;4993872;28;20023;-93
2021/03/15 10:51:54;;;;;;;0.73;0.73;;;8.40;99.90;;;;;;4979686;28;20030;-93
2021/03/15 10:54:35;;;;;;;0.10;0.10;;;8.40;99.90;;;;;;4991971;28;20022;-93
2021/03/15 10:57:21;;;;;;;0.20;0.20;;;8.10;99.90;;;;;;4978914;28;20035;-93
2021/03/15 10:59:49;;;;;;;2.97;1.35;;;7.90;99.90;;;;;;4983316;28;20023;-94
2021/03/15 11:02:25;;;;;;;0.00;0.00;;;8.10;99.90;;;;;;4993690;28;20050;-92
2021/03/15 11:04:56;;;;;;;0.10;0.10;;;8.20;1.00;;;;;;4993655;28;20486;-93
2021/03/15 11:07:25;;;;;;;0.80;0.80;;;8.30;99.90;;;;;;4991499;28;20092;-93
2021/03/15 11:10:08;;;;;;;0.10;0.10;;;8.90;99.90;;;;;;4977927;28;20498;-92
2021/03/15 11:12:35;;;;;;;0.10;0.10;;;9.00;99.90;;;;;;4987387;28;20435;-93
2021/03/15 11:15:28;;;;;;;;;;;9.70;99.90;;;;;;4978385;28;20038;-93
2021/03/15 11:18:07;;;;;;;1.73;1.10;;;10.20;99.90;;;;;;4991097;28;19905;-93
2021/03/15 11:20:42;;;;;;;0.82;0.82;;;9.60;99.90;;;;;;4993229;28;20053;-93
2021/03/15 11:23:09;;;;;;;0.10;0.10;;;9.80;1.00;;;;;;4993890;28;20509;-92
2021/03/15 11:25:35;;;;;;;0.10;0.10;;;9.90;99.90;;;;;;4994771;28;20061;-92
2021/03/15 11:28:09;;;;;;;0.10;0.10;;;9.10;61.90;;;;;;4974891;28;20559;-93
2021/03/15 11:30:36;;;;;;;0.10;0.10;;;9.20;99.90;;;;;;4983759;28;20038;-93
2021/03/15 11:33:08;;;;;;;0.10;0.10;;;9.20;99.90;;;;;;4992632;28;20498;-93
2021/03/15 11:35:36;;;;;;;0.10;0.10;;;9.70;99.90;;;;;;4991582;28;20026;-93
2021/03/15 11:38:02;;;;;;;0.20;0.20;;;9.80;1.00;;;;;;4993310;28;20053;-93
2021/03/15 11:40:29;;;;;;;0.10;0.10;;;9.30;1.00;;;;;;4988680;28;20023;-93
2021/03/15 11:42:56;;;;;;;0.22;0.22;;;8.90;1.00;;;;;;4983569;28;20516;-93
2021/03/15 11:45:23;;;;;;;0.20;0.20;;;9.20;99.90;;;;;;4978789;28;20177;-93
2021/03/15 11:47:49;;;;;;;0.10;0.10;;;9.30;23.80;;;;;;4992655;28;20034;-94
2021/03/15 11:50:15;;;;;;;0.13;0.13;;;9.20;99.90;;;;;;4993787;28;20033;-94
2021/03/15 11:52:41;;;;;;;0.57;0.57;;;9.10;99.90;;;;;;4993019;28;20116;-93
2021/03/15 11:55:11;;;;;;;0.00;0.00;;;9.00;99.90;;;;;;4992482;28;20052;-93
2021/03/15 11:57:38;;;;;;;1.30;0.40;;;9.30;99.90;;;;;;4979014;28;20041;-93
2021/03/15 12:00:06;;;;;;;0.40;0.40;;;9.20;99.90;;;;;;4981002;28;20027;-92
2021/03/15 12:02:32;;;;;;;0.00;0.00;;;9.30;99.90;;;;;;4973099;28;20031;-92
2021/03/15 12:04:58;;;;;;;0.20;0.20;;;9.60;99.90;;;;;;4982188;28;20041;-92
2021/03/15 12:07:24;;;;;;;0.35;0.35;;;9.60;99.90;;;;;;4989004;28;20061;-93
2021/03/15 12:09:50;;;;;;;0.33;0.30;;;9.00;99.90;;;;;;4980144;28;20383;-93
2021/03/15 12:12:15;;;;;;;0.00;0.00;;;9.20;99.90;;;;;;4990985;28;20033;-91
2021/03/15 12:14:41;;;;;;;0.10;0.10;;;10.70;99.90;;;;;;4990309;28;20046;-92
2021/03/15 12:17:07;;;;;;;3.00;1.23;;;11.70;99.90;;;;;;4990237;28;20109;-92
2021/03/15 12:19:33;;;;;;;2.05;1.05;;;12.50;99.90;;;;;;4985325;28;20023;-92
2021/03/15 12:21:59;;;;;;;1.10;0.57;;;12.80;99.90;;;;;;4980874;28;20030;-91
2021/03/15 12:24:25;;;;;;;0.00;0.00;;;13.20;99.90;;;;;;4988326;28;20505;-91
2021/03/15 12:26:50;;;;;;;0.35;0.35;;;13.90;99.90;;;;;;4983937;28;20041;-93
2021/03/15 12:29:16;;;;;;;0.03;0.03;;;14.10;99.90;;;;;;4969967;28;20126;-92
2021/03/15 12:31:42;;;;;;;0.10;0.10;;;14.30;99.90;;;;;;4989114;28;20133;-92
2021/03/15 12:34:08;;;;;;;0.10;0.10;;;14.10;99.90;;;;;;4990436;28;20022;-92
2021/03/15 12:36:34;;;;;;;0.10;0.10;;;14.20;99.90;;;;;;4985404;28;20029;-91
2021/03/15 12:39:00;;;;;;;0.10;0.10;;;14.20;99.90;;;;;;4982917;28;20030;-92
2021/03/15 12:41:25;;;;;;;0.00;0.00;;;14.30;99.90;;;;;;4981883;28;20034;-92
2021/03/15 12:43:51;;;;;;;0.22;0.22;;;14.50;99.90;;;;;;4991646;28;20023;-94
2021/03/15 12:46:19;;;;;;;0.77;0.77;;;14.70;99.90;;;;;;4995117;28;20035;-94
2021/03/15 12:48:46;;;;;;;0.35;0.20;;;14.90;99.90;;;;;;4997280;28;20085;-93
2021/03/15 12:51:12;;;;;;;0.10;0.10;;;15.10;99.90;;;;;;4997532;28;20026;-94
2021/03/15 12:53:38;;;;;;;0.20;0.20;;;15.50;99.90;;;;;;4997564;28;20138;-94
2021/03/15 12:56:05;;;;;;;0.10;0.10;;;15.60;99.90;;;;;;4997287;28;20014;-93
2021/03/15 12:58:31;;;;;;;;;;;15.40;99.90;;;;;;4997259;28;20262;-95
2021/03/15 13:00:57;;;;;;;0.40;0.40;;;15.20;99.90;;;;;;4996981;28;20267;-96
2021/03/15 13:03:23;;;;;;;0.20;0.20;;;15.90;99.90;;;;;;4997180;28;20030;-95
2021/03/15 13:05:49;;;;;;;0.00;0.00;;;15.80;99.90;;;;;;4997141;28;20394;-94
2021/03/15 13:08:15;;;;;;;0.10;0.10;;;16.60;99.90;;;;;;4997014;28;20018;-94
2021/03/15 13:10:41;;;;;;;31.52;0.93;;;16.70;99.90;;;;;;4996862;28;20026;-94
2021/03/15 13:13:06;;;;;;;0.28;0.28;;;16.10;99.90;;;;;;4996529;28;20022;-94
2021/03/15 13:15:33;;;;;;;0.95;0.95;;;16.10;99.90;;;;;;4996581;28;20030;-94